sensor_id;sensor_type;location;lat;lon;timestamp;pressure;altitude;pressure_sealevel;temperature;humidity
47710;BME280;33473;51.640;5.892;2023-07-02T00:07:15;100600;;;23.4;53.0
47710;BME280;33473;51.640;5.892;2023-07-02T00:20:35;100500;;;23.3;53.0
47710;BME280;33473;51.640;5.892;2023-07-02T00:33:55;100500;;;23.2;53.0
47710;BME280;33473;51.640;5.892;2023-07-02T00:47:15;100500;;;23.1;52.0
47710;BME280;33473;51.640;5.892;2023-07-02T01:00:36;100600;;;23.1;52.0
47710;BME280;33473;51.640;5.892;2023-07-02T01:13:57;100600;;;23.0;52.0
47710;BME280;33473;51.640;5.892;2023-07-02T01:27:17;100600;;;23.0;52.0
47710;BME280;33473;51.640;5.892;2023-07-02T01:40:38;100600;;;22.8;52.0
47710;BME280;33473;51.640;5.892;2023-07-02T01:53:59;100600;;;22.7;52.0
47710;BME280;33473;51.640;5.892;2023-07-02T02:07:20;100600;;;22.7;52.0
47710;BME280;33473;51.640;5.892;2023-07-02T02:20:41;100600;;;22.6;51.0
47710;BME280;33473;51.640;5.892;2023-07-02T02:34:03;100600;;;22.2;52.0
47710;BME280;33473;51.640;5.892;2023-07-02T02:47:22;100600;;;21.9;54.0
47710;BME280;33473;51.640;5.892;2023-07-02T03:00:42;100600;;;21.7;55.0
47710;BME280;33473;51.640;5.892;2023-07-02T03:14:01;100600;;;21.6;56.0
47710;BME280;33473;51.640;5.892;2023-07-02T03:27:21;100600;;;21.6;56.0
47710;BME280;33473;51.640;5.892;2023-07-02T03:40:42;100700;;;21.5;56.0
47710;BME280;33473;51.640;5.892;2023-07-02T03:54:02;100700;;;21.4;56.0
47710;BME280;33473;51.640;5.892;2023-07-02T04:07:23;100700;;;21.4;56.0
47710;BME280;33473;51.640;5.892;2023-07-02T04:20:44;100700;;;21.4;56.0
47710;BME280;33473;51.640;5.892;2023-07-02T04:34:04;100700;;;21.3;55.0
47710;BME280;33473;51.640;5.892;2023-07-02T04:47:25;100700;;;21.3;54.0
47710;BME280;33473;51.640;5.892;2023-07-02T05:00:45;100700;;;21.3;54.0
47710;BME280;33473;51.640;5.892;2023-07-02T05:14:05;100700;;;21.3;54.0
47710;BME280;33473;51.640;5.892;2023-07-02T05:27:24;100700;;;21.5;54.0
47710;BME280;33473;51.640;5.892;2023-07-02T05:40:45;100800;;;21.8;51.0
47710;BME280;33473;51.640;5.892;2023-07-02T05:54:05;100800;;;22.1;50.0
47710;BME280;33473;51.640;5.892;2023-07-02T06:07:26;100800;;;22.2;48.0
47710;BME280;33473;51.640;5.892;2023-07-02T06:20:46;100800;;;22.4;46.0
47710;BME280;33473;51.640;5.892;2023-07-02T06:34:06;100800;;;22.5;46.0
47710;BME280;33473;51.640;5.892;2023-07-02T06:47:27;100800;;;22.7;47.0
47710;BME280;33473;51.640;5.892;2023-07-02T07:00:48;100800;;;22.7;44.0
47710;BME280;33473;51.640;5.892;2023-07-02T07:14:08;100800;;;22.7;42.0
47710;BME280;33473;51.640;5.892;2023-07-02T07:27:27;100900;;;22.1;43.0
47710;BME280;33473;51.640;5.892;2023-07-02T07:40:48;100900;;;22.9;42.0
47710;BME280;33473;51.640;5.892;2023-07-02T07:54:10;100900;;;23.4;42.0
47710;BME280;33473;51.640;5.892;2023-07-02T08:07:29;100900;;;23.3;40.0
47710;BME280;33473;51.640;5.892;2023-07-02T08:20:51;100900;;;24.0;40.0
47710;BME280;33473;51.640;5.892;2023-07-02T08:34:12;100900;;;23.1;40.0
47710;BME280;33473;51.640;5.892;2023-07-02T08:47:31;100900;;;22.9;41.0
47710;BME280;33473;51.640;5.892;2023-07-02T09:00:53;100900;;;23.6;38.0
47710;BME280;33473;51.640;5.892;2023-07-02T09:14:12;100900;;;24.0;38.0
47710;BME280;33473;51.640;5.892;2023-07-02T09:27:33;100900;;;23.8;36.0
47710;BME280;33473;51.640;5.892;2023-07-02T09:40:55;100900;;;24.4;39.0
47710;BME280;33473;51.640;5.892;2023-07-02T09:54:16;100900;;;24.3;36.0
47710;BME280;33473;51.640;5.892;2023-07-02T10:07:35;100900;;;24.6;35.0
47710;BME280;33473;51.640;5.892;2023-07-02T10:20:57;100900;;;24.7;36.0
47710;BME280;33473;51.640;5.892;2023-07-02T10:34:16;100900;;;23.7;38.0
47710;BME280;33473;51.640;5.892;2023-07-02T10:47:37;100900;;;24.7;40.0
47710;BME280;33473;51.640;5.892;2023-07-02T11:00:57;101000;;;24.1;37.0
47710;BME280;33473;51.640;5.892;2023-07-02T11:14:17;101000;;;23.4;40.0
47710;BME280;33473;51.640;5.892;2023-07-02T11:27:38;101000;;;24.5;40.0
47710;BME280;33473;51.640;5.892;2023-07-02T11:40:58;101000;;;25.3;36.0
47710;BME280;33473;51.640;5.892;2023-07-02T11:54:17;101000;;;25.3;37.0
47710;BME280;33473;51.640;5.892;2023-07-02T12:07:39;101000;;;26.3;37.0
47710;BME280;33473;51.640;5.892;2023-07-02T12:20:58;101000;;;26.7;37.0
47710;BME280;33473;51.640;5.892;2023-07-02T12:34:19;101000;;;26.1;34.0
47710;BME280;33473;51.640;5.892;2023-07-02T12:47:39;101000;;;26.4;34.0
47710;BME280;33473;51.640;5.892;2023-07-02T13:01:00;101000;;;26.4;34.0
47710;BME280;33473;51.640;5.892;2023-07-02T13:14:20;101000;;;24.8;33.0
47710;BME280;33473;51.640;5.892;2023-07-02T13:27:40;101000;;;25.9;33.0
47710;BME280;33473;51.640;5.892;2023-07-02T13:41:01;101000;;;26.0;32.0
47710;BME280;33473;51.640;5.892;2023-07-02T13:54:22;101000;;;26.7;28.0
47710;BME280;33473;51.640;5.892;2023-07-02T14:07:42;101000;;;26.9;29.0
47710;BME280;33473;51.640;5.892;2023-07-02T14:21:03;101000;;;26.3;32.0
47710;BME280;33473;51.640;5.892;2023-07-02T14:34:24;101000;;;26.7;30.0
47710;BME280;33473;51.640;5.892;2023-07-02T14:47:44;101000;;;26.2;34.0
47710;BME280;33473;51.640;5.892;2023-07-02T15:01:03;101000;;;26.0;30.0
47710;BME280;33473;51.640;5.892;2023-07-02T15:14:23;100900;;;26.8;29.0
47710;BME280;33473;51.640;5.892;2023-07-02T15:27:43;100900;;;27.0;31.0
47710;BME280;33473;51.640;5.892;2023-07-02T15:41:04;100900;;;26.6;29.0
47710;BME280;33473;51.640;5.892;2023-07-02T15:54:24;100900;;;26.4;33.0
47710;BME280;33473;51.640;5.892;2023-07-02T16:07:45;100900;;;26.9;32.0
47710;BME280;33473;51.640;5.892;2023-07-02T16:21:05;100900;;;26.4;31.0
47710;BME280;33473;51.640;5.892;2023-07-02T16:34:24;100900;;;27.0;31.0
47710;BME280;33473;51.640;5.892;2023-07-02T16:47:44;100900;;;26.8;28.0
47710;BME280;33473;51.640;5.892;2023-07-02T17:01:04;100900;;;26.8;32.0
47710;BME280;33473;51.640;5.892;2023-07-02T17:14:23;100900;;;26.2;31.0
47710;BME280;33473;51.640;5.892;2023-07-02T17:27:43;100900;;;26.4;31.0
47710;BME280;33473;51.640;5.892;2023-07-02T17:41:04;100900;;;25.8;32.0
47710;BME280;33473;51.640;5.892;2023-07-02T17:54:25;100900;;;25.6;33.0
47710;BME280;33473;51.640;5.892;2023-07-02T18:07:45;100900;;;25.6;32.0
47710;BME280;33473;51.640;5.892;2023-07-02T18:21:06;100900;;;25.5;32.0
47710;BME280;33473;51.640;5.892;2023-07-02T18:34:27;100900;;;25.2;33.0
47710;BME280;33473;51.640;5.892;2023-07-02T18:47:47;100900;;;25.3;34.0
47710;BME280;33473;51.640;5.892;2023-07-02T19:01:08;100900;;;25.2;35.0
47710;BME280;33473;51.640;5.892;2023-07-02T19:14:29;100900;;;24.8;35.0
47710;BME280;33473;51.640;5.892;2023-07-02T19:27:51;100900;;;24.7;37.0
47710;BME280;33473;51.640;5.892;2023-07-02T19:41:10;100900;;;24.4;37.0
47710;BME280;33473;51.640;5.892;2023-07-02T19:54:31;100900;;;24.1;37.0
47710;BME280;33473;51.640;5.892;2023-07-02T20:07:53;100900;;;23.9;38.0
47710;BME280;33473;51.640;5.892;2023-07-02T20:21:14;100900;;;23.7;40.0
47710;BME280;33473;51.640;5.892;2023-07-02T20:34:33;100900;;;23.5;40.0
47710;BME280;33473;51.640;5.892;2023-07-02T20:47:55;100900;;;23.4;41.0
47710;BME280;33473;51.640;5.892;2023-07-02T21:01:16;100900;;;23.2;41.0
47710;BME280;33473;51.640;5.892;2023-07-02T21:14:35;100900;;;23.0;43.0
47710;BME280;33473;51.640;5.892;2023-07-02T21:27:55;100900;;;22.9;43.0
47710;BME280;33473;51.640;5.892;2023-07-02T21:41:16;100900;;;22.7;44.0
47710;BME280;33473;51.640;5.892;2023-07-02T21:54:38;100900;;;22.3;42.0
47710;BME280;33473;51.640;5.892;2023-07-02T22:07:59;100900;;;22.0;41.0
47710;BME280;33473;51.640;5.892;2023-07-02T22:21:18;100900;;;21.9;42.0
47710;BME280;33473;51.640;5.892;2023-07-02T22:34:40;100900;;;21.7;41.0
47710;BME280;33473;51.640;5.892;2023-07-02T22:47:59;100900;;;21.8;41.0
47710;BME280;33473;51.640;5.892;2023-07-02T23:01:20;100900;;;21.9;40.0
47710;BME280;33473;51.640;5.892;2023-07-02T23:14:42;100900;;;22.0;39.0
47710;BME280;33473;51.640;5.892;2023-07-02T23:28:01;100900;;;22.0;39.0
47710;BME280;33473;51.640;5.892;2023-07-02T23:41:21;100900;;;22.0;39.0
47710;BME280;33473;51.640;5.892;2023-07-02T23:54:41;100900;;;22.0;39.0
